Time;durP1;ratioP1;P1;durP2;ratioP2;P2;SDS_P1;SDS_P2;PMS_P1;PMS_P2;Temp;Humidity;BMP_temperature;BMP_pressure;BME280_temperature;BME280_humidity;BME280_pressure;Samples;Min_cycle;Max_cycle;Signal;HPM_P1;HPM_P2
2021/09/02 00:01:20;;;;;;;7.82;5.80;;;17.00;99.90;;;;;;5015553;28;20464;-88
2021/09/02 00:03:46;;;;;;;8.05;6.28;;;17.00;99.90;;;;;;4997579;28;20040;-88
2021/09/02 00:06:13;;;;;;;8.52;6.70;;;17.00;99.90;;;;;;5014953;28;20483;-89
2021/09/02 00:08:39;;;;;;;9.77;7.70;;;17.10;99.90;;;;;;4997630;28;20033;-88
2021/09/02 00:11:05;;;;;;;10.68;8.10;;;17.10;99.90;;;;;;4998233;28;20037;-89
2021/09/02 00:13:30;;;;;;;11.55;8.25;;;17.10;99.90;;;;;;4997947;28;20113;-88
2021/09/02 00:15:56;;;;;;;9.25;6.80;;;17.00;99.90;;;;;;4997849;28;20091;-89
2021/09/02 00:18:22;;;;;;;8.93;6.85;;;17.10;99.90;;;;;;5016270;28;20050;-89
2021/09/02 00:20:47;;;;;;;10.13;7.63;;;17.00;99.90;;;;;;5016095;28;20026;-88
2021/09/02 00:23:13;;;;;;;8.77;6.55;;;17.10;99.90;;;;;;5015791;28;20416;-89
2021/09/02 00:25:39;;;;;;;8.20;6.88;;;17.00;99.90;;;;;;4997211;28;20022;-88
2021/09/02 00:28:04;;;;;;;9.77;6.70;;;17.00;99.90;;;;;;4996922;28;20068;-88
2021/09/02 00:30:30;;;;;;;12.63;7.72;;;17.00;99.90;;;;;;5014824;28;20045;-88
2021/09/02 00:32:56;;;;;;;10.00;7.25;;;17.00;99.90;;;;;;4997362;28;20450;-88
2021/09/02 00:35:21;;;;;;;9.40;7.00;;;17.00;99.90;;;;;;5015332;28;20396;-88
2021/09/02 00:37:47;;;;;;;9.23;7.65;;;17.00;99.90;;;;;;4997145;28;20431;-89
2021/09/02 00:40:13;;;;;;;8.82;7.60;;;17.00;99.90;;;;;;4997568;28;20028;-89
2021/09/02 00:42:38;;;;;;;10.98;7.43;;;16.90;99.90;;;;;;5015436;28;20041;-88
2021/09/02 00:45:05;;;;;;;12.82;8.75;;;16.90;99.90;;;;;;5015495;28;20030;-88
2021/09/02 00:47:31;;;;;;;10.75;8.68;;;17.00;99.90;;;;;;4997252;28;20030;-88
2021/09/02 00:49:56;;;;;;;11.52;8.75;;;16.90;99.90;;;;;;5015282;28;20038;-89
2021/09/02 00:52:29;;;;;;;9.93;8.18;;;16.90;99.90;;;;;;5014954;28;20057;-88
2021/09/02 00:55:00;;;;;;;11.60;8.07;;;16.90;99.90;;;;;;4997612;28;20480;-88
2021/09/02 00:57:28;;;;;;;12.30;9.00;;;16.90;99.90;;;;;;4996802;28;20424;-88
2021/09/02 01:00:16;;;;;;;9.18;7.53;;;16.90;99.90;;;;;;5013662;28;20037;-86
2021/09/02 01:02:43;;;;;;;10.50;8.35;;;16.90;99.90;;;;;;5017831;28;20029;-88
2021/09/02 01:05:10;;;;;;;10.85;9.00;;;16.90;99.90;;;;;;4999951;28;20033;-89
2021/09/02 01:07:36;;;;;;;10.70;8.43;;;16.80;99.90;;;;;;5017442;28;20539;-88
2021/09/02 01:10:04;;;;;;;10.35;8.45;;;16.80;99.90;;;;;;5000328;28;20030;-88
2021/09/02 01:12:36;;;;;;;11.18;7.63;;;16.90;99.90;;;;;;5017999;28;20113;-88
2021/09/02 01:15:09;;;;;;;10.20;7.63;;;16.90;99.90;;;;;;4999857;28;20026;-88
2021/09/02 01:17:36;;;;;;;7.88;6.85;;;16.90;99.90;;;;;;5017320;28;20076;-88
2021/09/02 01:20:03;;;;;;;8.15;6.80;;;16.80;99.90;;;;;;5000043;28;20349;-88
2021/09/02 01:22:30;;;;;;;7.25;6.45;;;16.80;99.90;;;;;;5000143;28;20490;-88
2021/09/02 01:25:11;;;;;;;7.10;6.05;;;16.80;99.90;;;;;;5017150;28;20084;-88
2021/09/02 01:27:38;;;;;;;7.70;6.63;;;16.90;99.90;;;;;;4999402;28;20068;-88
2021/09/02 01:30:06;;;;;;;8.02;6.60;;;16.90;99.90;;;;;;4999059;28;20042;-87
2021/09/02 01:32:34;;;;;;;8.07;6.20;;;16.80;99.90;;;;;;5016808;28;20028;-87
2021/09/02 01:35:01;;;;;;;6.28;5.05;;;16.80;99.90;;;;;;4998852;28;20026;-87
2021/09/02 01:37:42;;;;;;;6.82;5.35;;;16.80;99.90;;;;;;4999117;28;20106;-88
2021/09/02 01:40:14;;;;;;;7.13;5.38;;;16.80;99.90;;;;;;5016836;28;20026;-88
2021/09/02 01:42:39;;;;;;;6.57;4.82;;;16.80;99.90;;;;;;4998875;28;20026;-87
2021/09/02 01:45:06;;;;;;;5.93;4.68;;;16.80;99.90;;;;;;4999038;28;20026;-87
2021/09/02 01:47:32;;;;;;;6.82;5.22;;;16.80;99.90;;;;;;4982774;28;20125;-87
2021/09/02 01:50:08;;;;;;;6.38;5.00;;;16.80;99.90;;;;;;5016050;28;20165;-87
2021/09/02 01:52:34;;;;;;;5.82;4.60;;;16.80;99.90;;;;;;5016072;28;20511;-87
2021/09/02 01:55:01;;;;;;;6.10;4.30;;;16.80;99.90;;;;;;4998835;28;20030;-87
2021/09/02 01:57:28;;;;;;;5.32;4.18;;;16.80;99.90;;;;;;4999057;28;20052;-87
2021/09/02 01:59:54;;;;;;;5.47;4.18;;;16.80;99.90;;;;;;5021704;28;20045;-87
2021/09/02 02:02:19;;;;;;;4.63;3.80;;;16.80;99.90;;;;;;5003922;28;20025;-88
2021/09/02 02:04:46;;;;;;;5.70;4.10;;;16.80;99.90;;;;;;5003454;28;20034;-87
2021/09/02 02:07:12;;;;;;;4.55;3.53;;;16.80;99.90;;;;;;4999497;28;20060;-88
2021/09/02 02:09:37;;;;;;;4.95;3.60;;;16.80;99.90;;;;;;4998474;28;20033;-88
2021/09/02 02:12:04;;;;;;;4.47;3.60;;;16.80;99.90;;;;;;4998451;28;20461;-88
2021/09/02 02:14:29;;;;;;;5.85;3.65;;;16.70;99.50;;;;;;4998115;28;20026;-88
2021/09/02 02:16:55;;;;;;;4.43;3.08;;;16.70;99.70;;;;;;4998599;28;20068;-88
2021/09/02 02:19:21;;;;;;;3.58;3.20;;;16.70;99.60;;;;;;5016150;28;20029;-87
2021/09/02 02:21:46;;;;;;;6.25;3.85;;;16.60;99.60;;;;;;5016449;28;20068;-88
2021/09/02 02:24:12;;;;;;;4.95;3.83;;;16.50;99.90;;;;;;5015704;28;20030;-88
2021/09/02 02:26:38;;;;;;;5.78;4.13;;;16.50;99.90;;;;;;4998002;28;20033;-88
2021/09/02 02:29:04;;;;;;;6.93;4.38;;;16.50;99.90;;;;;;5015600;28;20080;-88
2021/09/02 02:31:30;;;;;;;4.20;3.17;;;16.40;99.90;;;;;;4998288;28;20088;-89
2021/09/02 02:33:56;;;;;;;3.83;2.88;;;16.40;99.90;;;;;;5015391;28;20040;-87
2021/09/02 02:36:21;;;;;;;4.15;3.20;;;16.30;99.90;;;;;;4997496;28;20145;-90
2021/09/02 02:38:47;;;;;;;4.05;3.20;;;16.30;99.90;;;;;;4998856;28;20087;-88
2021/09/02 02:41:13;;;;;;;5.40;4.00;;;16.20;99.90;;;;;;4999296;28;20026;-89
2021/09/02 02:43:39;;;;;;;6.05;4.40;;;16.20;99.90;;;;;;5000760;28;20026;-88
2021/09/02 02:46:04;;;;;;;5.20;4.18;;;16.20;99.90;;;;;;5017766;28;20026;-88
2021/09/02 02:48:30;;;;;;;6.63;4.72;;;16.20;99.90;;;;;;5012765;28;20030;-89
2021/09/02 02:50:56;;;;;;;5.60;3.97;;;16.10;99.90;;;;;;5032869;28;20036;-88
2021/09/02 02:53:21;;;;;;;5.13;3.78;;;16.10;99.90;;;;;;5023695;28;20030;-89
2021/09/02 02:55:47;;;;;;;5.35;3.92;;;16.10;99.90;;;;;;5015730;28;20453;-88
2021/09/02 02:58:13;;;;;;;5.05;3.92;;;16.10;99.90;;;;;;4997559;28;20435;-88
2021/09/02 03:00:38;;;;;;;5.05;3.72;;;16.10;99.90;;;;;;4998045;28;20476;-88
2021/09/02 03:03:04;;;;;;;4.20;3.10;;;16.10;99.90;;;;;;4997349;28;20415;-88
2021/09/02 03:05:30;;;;;;;4.50;3.40;;;16.10;99.90;;;;;;5014696;28;20064;-87
2021/09/02 03:07:55;;;;;;;4.30;3.22;;;16.10;99.90;;;;;;4997012;28;20030;-87
2021/09/02 03:10:21;;;;;;;3.83;3.15;;;16.10;99.90;;;;;;5015069;28;20038;-88
2021/09/02 03:12:46;;;;;;;4.65;3.63;;;16.20;99.90;;;;;;4997152;28;20034;-87
2021/09/02 03:15:12;;;;;;;4.18;3.22;;;16.20;99.90;;;;;;4997364;28;20384;-88
2021/09/02 03:17:38;;;;;;;4.50;3.45;;;16.20;99.90;;;;;;4996838;28;20431;-89
2021/09/02 03:20:06;;;;;;;3.63;3.10;;;16.20;99.90;;;;;;4996955;28;20486;-88
2021/09/02 03:22:31;;;;;;;5.05;2.95;;;16.20;99.90;;;;;;4997012;28;20028;-88
2021/09/02 03:24:57;;;;;;;4.18;3.38;;;16.20;99.90;;;;;;5013723;28;20041;-87
2021/09/02 03:27:23;;;;;;;3.92;2.90;;;16.20;99.90;;;;;;4996852;28;20510;-86
2021/09/02 03:29:49;;;;;;;5.03;2.72;;;16.30;99.90;;;;;;4996999;28;20034;-87
2021/09/02 03:32:14;;;;;;;4.43;3.03;;;16.30;99.90;;;;;;5014180;28;20026;-88
2021/09/02 03:34:40;;;;;;;3.88;2.70;;;16.30;99.90;;;;;;4996404;28;20026;-89
2021/09/02 03:37:06;;;;;;;4.57;3.42;;;16.30;99.90;;;;;;4998704;28;20452;-90
2021/09/02 03:39:32;;;;;;;4.85;3.83;;;16.30;99.90;;;;;;4997405;28;20124;-90
2021/09/02 03:41:59;;;;;;;4.13;3.30;;;16.30;99.90;;;;;;4997540;28;20108;-93
2021/09/02 03:44:25;;;;;;;5.25;3.88;;;16.30;99.90;;;;;;4982246;28;20084;-93
2021/09/02 03:46:50;;;;;;;5.57;3.47;;;16.30;99.90;;;;;;4999149;28;20030;-93
2021/09/02 03:49:16;;;;;;;4.82;3.47;;;16.30;99.90;;;;;;5004136;28;20037;-89
2021/09/02 03:51:42;;;;;;;4.47;3.40;;;16.30;99.90;;;;;;5002381;28;20078;-89
2021/09/02 03:54:09;;;;;;;3.83;3.08;;;16.30;99.90;;;;;;5006519;28;20049;-86
2021/09/02 03:56:35;;;;;;;3.63;3.10;;;16.30;99.90;;;;;;5011082;28;20026;-86
2021/09/02 03:59:01;;;;;;;4.75;3.10;;;16.30;99.90;;;;;;5025429;28;20045;-89
2021/09/02 04:01:27;;;;;;;4.25;3.30;;;16.30;99.90;;;;;;5018947;28;20034;-90
2021/09/02 04:03:56;;;;;;;4.75;3.10;;;16.30;99.90;;;;;;4997292;28;20037;-90
2021/09/02 04:06:22;;;;;;;3.80;2.80;;;16.30;99.90;;;;;;5001091;28;20094;-91
2021/09/02 04:08:47;;;;;;;4.05;3.00;;;16.30;99.90;;;;;;4997768;28;20120;-90
2021/09/02 04:11:13;;;;;;;7.45;3.50;;;16.30;99.90;;;;;;4998383;28;20030;-95
2021/09/02 04:13:39;;;;;;;5.22;3.40;;;16.30;99.90;;;;;;4980483;28;20038;-91
2021/09/02 04:16:05;;;;;;;4.25;3.00;;;16.20;99.90;;;;;;5014212;28;20034;-90
2021/09/02 04:18:31;;;;;;;4.35;3.40;;;16.20;99.90;;;;;;4996546;28;20026;-91
2021/09/02 04:20:57;;;;;;;6.60;3.58;;;16.20;99.90;;;;;;4996383;28;20472;-89
2021/09/02 04:23:23;;;;;;;4.55;3.22;;;16.20;99.80;;;;;;4998295;28;20116;-93
2021/09/02 04:25:51;;;;;;;6.10;3.22;;;16.20;99.80;;;;;;4997494;28;20508;-91
2021/09/02 04:28:18;;;;;;;5.28;3.30;;;16.30;99.30;;;;;;5015372;28;20552;-94
2021/09/02 04:30:49;;;;;;;5.60;3.70;;;16.20;98.60;;;;;;4998510;28;20061;-90
2021/09/02 04:33:15;;;;;;;5.78;3.40;;;16.20;98.00;;;;;;4996173;28;20088;-88
2021/09/02 04:35:41;;;;;;;5.57;3.42;;;16.20;98.20;;;;;;5013850;28;20513;-88
2021/09/02 04:38:08;;;;;;;6.28;4.00;;;16.20;98.30;;;;;;4998932;28;20040;-89
2021/09/02 04:40:34;;;;;;;8.55;3.60;;;16.20;98.10;;;;;;4998903;28;20026;-88
2021/09/02 04:43:00;;;;;;;6.10;4.10;;;16.20;98.40;;;;;;5016755;28;20033;-91
2021/09/02 04:45:26;;;;;;;5.15;3.67;;;16.30;97.10;;;;;;4998745;28;20030;-91
2021/09/02 04:47:51;;;;;;;5.38;3.70;;;16.30;97.20;;;;;;4998985;28;20050;-88
2021/09/02 04:50:17;;;;;;;7.22;4.22;;;16.30;97.10;;;;;;5016214;28;20373;-87
2021/09/02 04:52:43;;;;;;;5.97;4.35;;;16.30;96.60;;;;;;4997588;28;20045;-89
2021/09/02 04:55:10;;;;;;;8.98;5.63;;;16.30;96.50;;;;;;5016422;28;20029;-89
2021/09/02 04:57:37;;;;;;;8.52;6.10;;;16.30;96.00;;;;;;4985424;28;20441;-90
2021/09/02 05:00:05;;;;;;;9.48;5.63;;;16.30;95.30;;;;;;4978464;28;20465;-88
2021/09/02 05:02:31;;;;;;;7.25;4.95;;;16.30;95.30;;;;;;4962525;28;20038;-89
2021/09/02 05:04:57;;;;;;;8.73;4.80;;;16.30;95.30;;;;;;4980331;28;20034;-91
2021/09/02 05:07:23;;;;;;;7.30;4.45;;;16.30;95.30;;;;;;4981547;28;20366;-91
2021/09/02 05:09:49;;;;;;;17.73;13.65;;;16.30;95.30;;;;;;4982056;28;20026;-89
2021/09/02 05:12:16;;;;;;;11.70;7.78;;;16.30;94.90;;;;;;4980810;28;20034;-86
2021/09/02 05:14:43;;;;;;;7.80;5.28;;;16.30;94.60;;;;;;4979794;28;20034;-87
2021/09/02 05:17:09;;;;;;;8.95;5.30;;;16.40;94.10;;;;;;4979630;28;20134;-87
2021/09/02 05:19:35;;;;;;;7.43;4.65;;;16.40;94.00;;;;;;4979918;28;20109;-85
2021/09/02 05:22:01;;;;;;;6.85;4.28;;;16.50;94.10;;;;;;4979882;28;20057;-87
2021/09/02 05:24:27;;;;;;;6.88;4.70;;;16.60;94.00;;;;;;4997353;28;20030;-88
2021/09/02 05:26:52;;;;;;;6.88;4.63;;;16.70;93.70;;;;;;4979834;28;20408;-88
2021/09/02 05:29:18;;;;;;;7.18;4.68;;;16.70;93.70;;;;;;4997582;28;20105;-91
2021/09/02 05:31:44;;;;;;;9.43;4.63;;;16.90;93.10;;;;;;4998282;28;20117;-93
2021/09/02 05:34:10;;;;;;;9.20;5.10;;;17.00;92.50;;;;;;4998470;28;20037;-93
2021/09/02 05:36:36;;;;;;;88.93;62.88;;;17.00;91.90;;;;;;4996578;28;20089;-96
2021/09/02 05:39:03;;;;;;;74.38;49.55;;;17.00;91.40;;;;;;5004212;28;20050;-92
2021/09/02 05:41:29;;;;;;;33.35;21.63;;;16.90;90.90;;;;;;5018347;28;20399;-93
2021/09/02 05:43:54;;;;;;;18.55;12.43;;;16.90;90.10;;;;;;4984477;28;20041;-91
2021/09/02 05:46:20;;;;;;;12.60;9.02;;;16.90;90.10;;;;;;5017072;28;20461;-93
2021/09/02 05:48:46;;;;;;;9.77;6.47;;;16.80;90.10;;;;;;4997042;28;20055;-93
2021/09/02 05:51:12;;;;;;;8.00;5.40;;;16.90;90.00;;;;;;4999772;28;20468;-92
2021/09/02 05:53:37;;;;;;;8.10;5.35;;;16.90;90.20;;;;;;5016131;28;20465;-93
2021/09/02 05:56:05;;;;;;;6.57;4.88;;;16.90;90.50;;;;;;4998144;28;20349;-91
2021/09/02 05:58:30;;;;;;;6.90;4.93;;;17.10;90.80;;;;;;4996922;28;20445;-91
2021/09/02 06:00:56;;;;;;;7.28;5.32;;;17.30;90.60;;;;;;5015997;28;20256;-92
2021/09/02 06:03:22;;;;;;;6.75;4.80;;;17.50;90.00;;;;;;5013940;28;20460;-91
2021/09/02 06:05:48;;;;;;;7.20;4.80;;;17.60;89.20;;;;;;4996496;28;20451;-92
2021/09/02 06:08:13;;;;;;;7.13;4.35;;;17.80;89.20;;;;;;4996463;28;20030;-92
2021/09/02 06:10:39;;;;;;;7.43;4.63;;;18.00;88.70;;;;;;5014567;28;20029;-90
2021/09/02 06:13:05;;;;;;;6.57;4.72;;;18.20;86.10;;;;;;5014274;28;20117;-91
2021/09/02 06:15:31;;;;;;;6.88;4.63;;;18.30;84.10;;;;;;4996947;28;20030;-91
2021/09/02 06:17:56;;;;;;;6.18;4.40;;;18.30;83.20;;;;;;5015922;28;20109;-93
2021/09/02 06:20:24;;;;;;;7.95;4.55;;;18.40;83.30;;;;;;5016153;28;20113;-90
2021/09/02 06:22:51;;;;;;;5.32;3.80;;;18.40;83.00;;;;;;5017252;28;20026;-94
2021/09/02 06:25:16;;;;;;;6.90;4.50;;;18.50;83.20;;;;;;5002926;28;20026;-94
2021/09/02 06:27:42;;;;;;;5.60;4.32;;;18.70;81.90;;;;;;5018748;28;20032;-91
2021/09/02 06:30:08;;;;;;;7.45;4.78;;;18.80;81.90;;;;;;5007592;28;20030;-92
2021/09/02 06:32:33;;;;;;;6.22;4.50;;;19.00;81.00;;;;;;5025436;28;20495;-92
2021/09/02 06:34:59;;;;;;;5.65;4.35;;;19.20;80.40;;;;;;5025626;28;20030;-91
2021/09/02 06:37:25;;;;;;;6.43;4.07;;;19.40;79.70;;;;;;4999423;28;20065;-92
2021/09/02 06:39:50;;;;;;;6.57;4.82;;;19.60;79.50;;;;;;5016578;28;20025;-91
2021/09/02 06:42:16;;;;;;;6.70;4.30;;;19.80;78.60;;;;;;4998405;28;20534;-91
2021/09/02 06:44:42;;;;;;;8.30;4.90;;;19.90;77.90;;;;;;4998939;28;20524;-92
2021/09/02 06:47:08;;;;;;;6.50;4.65;;;20.00;77.60;;;;;;5016609;28;20033;-92
2021/09/02 06:49:33;;;;;;;6.70;4.88;;;19.90;76.40;;;;;;5016174;28;20033;-91
2021/09/02 06:51:59;;;;;;;9.48;6.07;;;19.80;76.20;;;;;;4998089;28;20046;-92
2021/09/02 06:54:25;;;;;;;8.25;6.28;;;19.60;75.60;;;;;;5016130;28;20037;-93
2021/09/02 06:56:50;;;;;;;9.48;5.80;;;19.40;75.60;;;;;;4999825;28;20028;-93
2021/09/02 06:59:16;;;;;;;8.18;5.45;;;19.30;76.70;;;;;;5016710;28;20022;-93
2021/09/02 07:01:41;;;;;;;7.90;5.00;;;19.20;76.10;;;;;;4998911;28;20026;-94
2021/09/02 07:04:07;;;;;;;9.90;5.30;;;19.10;76.30;;;;;;5015762;28;20434;-93
2021/09/02 07:06:33;;;;;;;7.75;5.45;;;19.00;76.90;;;;;;5015999;28;20029;-94
2021/09/02 07:08:59;;;;;;;6.95;4.68;;;18.80;76.50;;;;;;4998225;28;20380;-94
2021/09/02 07:11:25;;;;;;;9.23;4.78;;;18.70;76.70;;;;;;5015322;28;20033;-93
2021/09/02 07:13:50;;;;;;;8.05;4.70;;;18.60;77.10;;;;;;5015292;28;20041;-93
2021/09/02 07:16:16;;;;;;;6.53;4.55;;;18.60;77.90;;;;;;5014995;28;20021;-91
2021/09/02 07:18:42;;;;;;;9.30;5.65;;;18.80;77.60;;;;;;4997465;28;20030;-91
2021/09/02 07:21:07;;;;;;;8.40;5.80;;;18.80;77.10;;;;;;5015020;28;20382;-92
2021/09/02 07:23:33;;;;;;;7.10;5.22;;;18.90;76.70;;;;;;4997338;28;20026;-91
2021/09/02 07:25:59;;;;;;;7.57;5.00;;;18.90;76.20;;;;;;5014527;28;20494;-92
2021/09/02 07:28:24;;;;;;;8.02;4.60;;;19.00;76.40;;;;;;5015136;28;20026;-91
2021/09/02 07:30:50;;;;;;;6.30;4.55;;;19.10;76.60;;;;;;5014518;28;20022;-92
2021/09/02 07:33:16;;;;;;;6.53;4.72;;;19.20;76.20;;;;;;4996875;28;20381;-91
2021/09/02 07:35:41;;;;;;;6.57;5.03;;;19.20;75.80;;;;;;5014472;28;20084;-92
2021/09/02 07:38:07;;;;;;;6.88;5.00;;;19.20;75.50;;;;;;4996818;28;20073;-90
2021/09/02 07:40:34;;;;;;;6.30;4.55;;;19.10;75.00;;;;;;4996863;28;20026;-91
2021/09/02 07:42:59;;;;;;;7.18;4.57;;;18.90;75.30;;;;;;5014501;28;20100;-90
2021/09/02 07:45:25;;;;;;;5.47;4.65;;;18.90;75.30;;;;;;5014238;28;20061;-90
2021/09/02 07:47:51;;;;;;;6.35;4.45;;;18.80;75.10;;;;;;4998773;28;20029;-89
2021/09/02 07:50:16;;;;;;;4.70;3.90;;;18.80;75.20;;;;;;4997335;28;20034;-92
2021/09/02 07:52:42;;;;;;;4.78;3.58;;;18.80;76.50;;;;;;5014037;28;20050;-90
2021/09/02 07:55:10;;;;;;;4.78;3.60;;;19.10;78.50;;;;;;5014157;28;20018;-91
2021/09/02 07:57:36;;;;;;;6.05;3.47;;;19.60;79.70;;;;;;4996400;28;20037;-92
2021/09/02 08:00:04;;;;;;;4.90;3.55;;;20.30;79.00;;;;;;5014690;28;20033;-90
2021/09/02 08:02:30;;;;;;;4.53;3.70;;;21.00;76.90;;;;;;4997512;28;20071;-91
2021/09/02 08:04:55;;;;;;;4.97;3.33;;;21.20;74.10;;;;;;5014604;28;20026;-91
2021/09/02 08:07:21;;;;;;;4.28;3.30;;;21.10;71.20;;;;;;5014378;28;20091;-90
2021/09/02 08:09:47;;;;;;;5.45;3.40;;;20.90;69.80;;;;;;5014531;28;20038;-91
2021/09/02 08:12:13;;;;;;;3.50;2.80;;;20.70;69.60;;;;;;5013806;28;20033;-92
2021/09/02 08:14:39;;;;;;;3.95;3.00;;;20.50;68.90;;;;;;5015110;28;20026;-92
2021/09/02 08:17:05;;;;;;;4.72;3.00;;;20.30;68.70;;;;;;4998213;28;20030;-93
2021/09/02 08:19:31;;;;;;;4.32;3.10;;;20.10;67.70;;;;;;4997056;28;20030;-95
2021/09/02 08:21:57;;;;;;;4.03;3.00;;;19.80;67.70;;;;;;4997990;28;20497;-93
2021/09/02 08:24:22;;;;;;;5.03;3.35;;;19.70;68.10;;;;;;5015302;28;20507;-93
2021/09/02 08:26:49;;;;;;;3.55;2.80;;;19.60;68.10;;;;;;5016381;28;20049;-92
2021/09/02 08:29:15;;;;;;;5.63;3.10;;;19.60;68.80;;;;;;4998221;28;20034;-93
2021/09/02 08:31:40;;;;;;;5.00;3.65;;;19.70;69.10;;;;;;5015957;28;20353;-93
2021/09/02 08:34:06;;;;;;;4.30;3.28;;;19.90;69.80;;;;;;5015698;28;20036;-92
2021/09/02 08:36:32;;;;;;;4.03;3.25;;;20.40;71.10;;;;;;4998128;28;20034;-90
2021/09/02 08:38:58;;;;;;;5.18;3.15;;;21.00;69.80;;;;;;5016071;28;20087;-90
2021/09/02 08:41:24;;;;;;;4.03;3.20;;;21.30;67.50;;;;;;5000450;28;20030;-90
2021/09/02 08:43:49;;;;;;;4.00;3.25;;;21.30;66.40;;;;;;5022046;28;20080;-92
2021/09/02 08:46:16;;;;;;;3.75;2.92;;;21.00;65.30;;;;;;5001386;28;20026;-92
2021/09/02 08:48:47;;;;;;;7.05;3.42;;;20.80;65.50;;;;;;5013953;28;20030;-86
2021/09/02 08:51:14;;;;;;;5.40;3.50;;;20.60;65.20;;;;;;5032877;28;20018;-88
2021/09/02 08:53:41;;;;;;;4.75;3.45;;;20.20;65.90;;;;;;5016311;28;20014;-90
2021/09/02 08:56:07;;;;;;;5.82;3.38;;;19.80;66.20;;;;;;5000979;28;20073;-93
2021/09/02 08:58:32;;;;;;;6.45;3.60;;;19.50;66.60;;;;;;5015942;28;20381;-93
2021/09/02 09:00:58;;;;;;;5.93;4.20;;;19.30;67.30;;;;;;4998072;28;20372;-94
2021/09/02 09:03:25;;;;;;;5.70;4.03;;;19.20;67.90;;;;;;5014547;28;20108;-92
2021/09/02 09:05:56;;;;;;;6.28;4.00;;;19.20;68.40;;;;;;5016656;28;20041;-93
2021/09/02 09:08:32;;;;;;;5.85;3.97;;;19.30;69.20;;;;;;5014298;28;20037;-92
2021/09/02 09:11:25;;;;;;;6.97;4.60;;;19.60;68.40;;;;;;4997439;28;20034;-92
2021/09/02 09:14:12;;;;;;;7.50;4.20;;;19.60;66.80;;;;;;5015718;28;20038;-92
2021/09/02 09:16:53;;;;;;;6.28;4.30;;;19.60;65.80;;;;;;4997296;28;20045;-92
2021/09/02 09:19:51;;;;;;;6.78;4.65;;;19.60;65.00;;;;;;4996984;28;20034;-91
2021/09/02 09:22:19;;;;;;;7.63;5.13;;;19.50;65.60;;;;;;5014731;28;20084;-91
2021/09/02 09:24:51;;;;;;;9.80;5.45;;;19.50;67.10;;;;;;5017393;28;20109;-90
2021/09/02 09:27:19;;;;;;;6.05;4.00;;;19.60;65.40;;;;;;4999598;28;20026;-90
2021/09/02 09:30:07;;;;;;;8.98;4.22;;;19.60;64.90;;;;;;4999567;28;20091;-91
2021/09/02 09:32:45;;;;;;;5.15;3.25;;;19.50;62.20;;;;;;5017667;28;20101;-91
2021/09/02 09:35:13;;;;;;;7.40;3.83;;;19.30;61.70;;;;;;5001168;28;20033;-91
2021/09/02 09:37:40;;;;;;;6.10;4.00;;;19.20;63.60;;;;;;5001529;28;20037;-92
2021/09/02 09:40:25;;;;;;;9.38;4.55;;;19.00;63.20;;;;;;5019752;28;20090;-92
2021/09/02 09:42:56;;;;;;;5.93;3.85;;;18.80;61.30;;;;;;5002805;28;20036;-90
2021/09/02 09:45:44;;;;;;;5.18;3.53;;;18.70;61.90;;;;;;5001900;28;20121;-91
2021/09/02 09:48:29;;;;;;;5.70;3.17;;;18.70;61.70;;;;;;5020992;28;20033;-91
2021/09/02 09:51:21;;;;;;;5.75;2.90;;;18.80;61.70;;;;;;5019414;28;20037;-91
2021/09/02 09:53:52;;;;;;;6.82;3.10;;;19.20;61.80;;;;;;5001702;28;20084;-91
2021/09/02 09:56:20;;;;;;;4.60;2.70;;;19.30;59.30;;;;;;5018060;28;20026;-92
2021/09/02 09:58:47;;;;;;;8.00;2.85;;;19.50;59.00;;;;;;5001242;28;20168;-92
2021/09/02 10:01:14;;;;;;;5.15;2.63;;;19.80;58.50;;;;;;5017760;28;20029;-92
2021/09/02 10:03:41;;;;;;;3.20;2.35;;;19.90;57.90;;;;;;5018005;28;20022;-91
2021/09/02 10:06:08;;;;;;;3.72;2.20;;;20.10;57.50;;;;;;5017869;28;20080;-91
2021/09/02 10:08:40;;;;;;;3.08;2.28;;;20.30;57.30;;;;;;5001169;28;20030;-93
2021/09/02 10:11:08;;;;;;;6.05;3.35;;;20.40;57.00;;;;;;5018373;28;20072;-91
2021/09/02 10:13:35;;;;;;;8.40;3.45;;;20.70;55.20;;;;;;5003415;28;20485;-93
2021/09/02 10:16:01;;;;;;;5.45;3.20;;;21.30;55.40;;;;;;5003544;28;20034;-94
2021/09/02 10:18:32;;;;;;;5.30;3.20;;;22.10;55.00;;;;;;5001528;28;20096;-95
2021/09/02 10:21:05;;;;;;;8.32;3.05;;;23.00;52.80;;;;;;5019143;28;20026;-93
2021/09/02 10:23:31;;;;;;;6.10;3.00;;;23.30;48.90;;;;;;5018842;28;20037;-92
2021/09/02 10:25:56;;;;;;;4.78;2.70;;;23.40;49.30;;;;;;5001835;28;20224;-95
2021/09/02 10:28:34;;;;;;;5.13;3.42;;;23.90;49.70;;;;;;5019320;28;20041;-92
2021/09/02 10:31:19;;;;;;;5.85;3.38;;;24.20;47.10;;;;;;5019100;28;20034;-94
2021/09/02 10:33:46;;;;;;;4.47;2.80;;;24.30;47.70;;;;;;5018592;28;20391;-94
2021/09/02 10:36:14;;;;;;;4.00;2.60;;;24.70;47.70;;;;;;5000824;28;20514;-93
2021/09/02 10:38:41;;;;;;;4.47;2.50;;;25.20;47.10;;;;;;5001114;28;20026;-94
2021/09/02 10:41:11;;;;;;;3.95;2.35;;;25.40;46.10;;;;;;5001282;28;20464;-95
2021/09/02 10:43:46;;;;;;;7.72;2.53;;;25.60;46.20;;;;;;5018961;28;20032;-95
2021/09/02 10:46:45;;;;;;;4.25;2.70;;;26.10;43.20;;;;;;5002016;28;20026;-96
2021/09/02 10:49:26;;;;;;;;;;;26.10;37.20;;;;;;5022459;28;20448;-96
2021/09/02 10:51:57;;;;;;;4.30;2.40;;;25.60;39.20;;;;;;5004974;28;19924;-94
2021/09/02 10:54:37;;;;;;;3.08;2.28;;;25.70;42.20;;;;;;5028965;28;20026;-96
2021/09/02 10:57:06;;;;;;;3.20;2.10;;;25.50;40.60;;;;;;5032117;28;20017;-92
2021/09/02 10:59:38;;;;;;;4.35;1.95;;;25.10;41.40;;;;;;5021250;28;20078;-94
2021/09/02 11:02:07;;;;;;;3.75;2.08;;;25.00;42.30;;;;;;5014635;28;20036;-93
2021/09/02 11:04:35;;;;;;;4.10;1.92;;;24.90;41.00;;;;;;5029016;28;20034;-94
2021/09/02 11:07:00;;;;;;;4.97;2.10;;;24.90;40.70;;;;;;5021590;28;20041;-96
2021/09/02 11:09:38;;;;;;;2.85;1.80;;;24.70;40.80;;;;;;5002037;28;20042;-94
2021/09/02 11:12:08;;;;;;;3.70;2.15;;;24.40;40.50;;;;;;5001764;28;20080;-95
2021/09/02 11:14:47;;;;;;;2.60;1.70;;;24.10;41.90;;;;;;5019654;28;20030;-96
2021/09/02 11:17:14;;;;;;;2.33;1.73;;;24.00;41.00;;;;;;5020080;28;20033;-94
2021/09/02 11:19:41;;;;;;;3.00;1.80;;;23.80;42.00;;;;;;5023021;28;20022;-94
2021/09/02 11:22:13;;;;;;;3.03;1.65;;;23.40;41.20;;;;;;5023461;28;20084;-94
2021/09/02 11:24:44;;;;;;;3.33;1.80;;;22.90;41.60;;;;;;5006251;28;20026;-96
2021/09/02 11:27:12;;;;;;;3.53;2.00;;;22.50;41.70;;;;;;5021872;28;20025;-96
2021/09/02 11:29:38;;;;;;;3.17;1.92;;;22.00;41.80;;;;;;5025157;28;20021;-95
2021/09/02 11:32:11;;;;;;;2.97;1.80;;;21.80;42.90;;;;;;5024270;28;20033;-96
2021/09/02 11:34:40;;;;;;;3.65;1.90;;;21.70;43.30;;;;;;5021722;28;20022;-95
2021/09/02 11:37:07;;;;;;;3.35;1.90;;;21.80;43.60;;;;;;5000812;28;20049;-95
2021/09/02 11:39:37;;;;;;;4.50;2.10;;;21.90;42.60;;;;;;5001124;28;20191;-96
2021/09/02 11:42:11;;;;;;;4.40;1.90;;;21.80;42.30;;;;;;5001341;28;20033;-96
2021/09/02 11:44:38;;;;;;;3.10;1.73;;;21.60;42.50;;;;;;5001893;28;20040;-94
2021/09/02 11:47:10;;;;;;;3.67;2.03;;;21.30;43.20;;;;;;5019573;28;20026;-95
2021/09/02 11:49:37;;;;;;;4.20;2.08;;;21.10;43.20;;;;;;5001779;28;20030;-95
2021/09/02 11:52:04;;;;;;;2.35;1.70;;;21.00;43.40;;;;;;5006425;28;20050;-96
2021/09/02 11:54:33;;;;;;;3.90;1.55;;;21.00;43.70;;;;;;5004106;28;20029;-95
2021/09/02 11:56:59;;;;;;;2.78;1.65;;;21.00;44.20;;;;;;5027804;28;20037;-94
2021/09/02 11:59:25;;;;;;;3.47;1.98;;;21.10;44.40;;;;;;5013403;28;20025;-95
2021/09/02 12:01:52;;;;;;;3.80;1.90;;;21.20;44.00;;;;;;5008957;28;20128;-96
2021/09/02 12:04:23;;;;;;;3.65;1.60;;;21.10;43.50;;;;;;5001344;28;20026;-95
2021/09/02 12:06:52;;;;;;;3.45;1.73;;;21.10;44.20;;;;;;4986045;28;20488;-95
2021/09/02 12:09:23;;;;;;;4.72;1.38;;;21.50;44.80;;;;;;5002670;28;20111;-95
2021/09/02 12:11:49;;;;;;;4.50;1.80;;;21.90;43.90;;;;;;5001891;28;20034;-94
2021/09/02 12:14:23;;;;;;;4.13;1.75;;;21.90;44.30;;;;;;5018707;28;20030;-94
2021/09/02 12:17:09;;;;;;;3.55;1.90;;;21.80;44.10;;;;;;5000446;28;20026;-93
2021/09/02 12:19:54;;;;;;;4.70;1.90;;;21.50;44.00;;;;;;4984244;28;20065;-94
2021/09/02 12:22:23;;;;;;;3.05;1.98;;;21.10;44.30;;;;;;5017382;28;20057;-95
2021/09/02 12:24:49;;;;;;;2.58;1.63;;;20.80;46.20;;;;;;5016915;28;20057;-95
2021/09/02 12:27:15;;;;;;;4.72;2.20;;;20.70;46.70;;;;;;5023744;28;20037;-94
2021/09/02 12:29:52;;;;;;;4.88;2.20;;;20.60;46.50;;;;;;5562934;23;20017;-93
2021/09/02 12:32:21;;;;;;;2.88;1.80;;;20.40;45.70;;;;;;5018723;28;20160;-95
2021/09/02 12:34:48;;;;;;;3.63;1.70;;;20.20;46.60;;;;;;5002418;28;20104;-95
2021/09/02 12:37:16;;;;;;;4.22;2.00;;;19.90;46.50;;;;;;5018732;28;20088;-95
2021/09/02 12:39:54;;;;;;;2.75;1.80;;;19.60;47.20;;;;;;5017695;28;20461;-95
2021/09/02 12:42:34;;;;;;;4.25;2.00;;;19.30;48.00;;;;;;5000473;28;20056;-94
2021/09/02 12:45:07;;;;;;;3.30;1.93;;;19.10;47.70;;;;;;5003323;28;20044;-93
2021/09/02 12:50:30;;;;;;;3.28;1.80;;;19.00;49.10;;;;;;4997435;28;20053;-93
2021/09/02 12:53:07;;;;;;;5.13;2.05;;;19.00;49.20;;;;;;4997544;28;20081;-95